UTTT/TAS METAR and TAF weather

Enter ICAO airport designator
Station Type Date Time Source
UTTT METAR 2022/07/03 14:30 UTC NOAA

UTTT 031430Z 01014KT CAVOK 36/07 Q0999 R08R/CLRD70 NOSIG


Station Type Date Time Source
UTTT Decoded METAR 2022/07/03 14:30 UTC NOAA

Tashkent, Uzbekistan (UTTT) 41-16N 069-16E 488M
Jul 03, 2022 - 10:30 AM EDT / 2022.07.03 1430 UTC
Wind: from the N (010 degrees) at 16 MPH (14 KT):0
Visibility: greater than 7 mile(s):0
Temperature: 96 F (36 C)
Dew Point: 44 F (7 C)
Relative Humidity: 16%
Pressure (altimeter): 29.50 in. Hg (0999 hPa)
ob: UTTT 031430Z 01014KT CAVOK 36/07 Q0999 R08R/CLRD70 NOSIG
cycle: 14

Station Type Date Time Source
UTTT TAF 2022/07/03 12:10 UTC NOAA

TAF UTTT 031100Z 0312/0412 08012KT 7000 NSC TX40/0410Z TN24/0401Z
TEMPO 0312/0318 32020G30KT 3000 -DS FEW060CB

Example: see airport list